createdAt,value
2023-07-11T00:01:39.106Z,4.18
2023-07-11T00:04:44.789Z,4.90
2023-07-11T00:07:47.256Z,4.95
2023-07-11T00:10:49.150Z,4.70
2023-07-11T00:13:54.106Z,4.50
2023-07-11T00:17:00.563Z,5.43
2023-07-11T00:20:02.796Z,5.03
2023-07-11T00:23:04.728Z,5.63
2023-07-11T00:26:06.935Z,4.90
2023-07-11T00:29:20.387Z,4.73
2023-07-11T00:32:26.282Z,4.88
2023-07-11T00:35:28.203Z,4.85
2023-07-11T00:38:32.050Z,4.57
2023-07-11T00:41:33.921Z,5.28
2023-07-11T00:45:02.728Z,4.77
2023-07-11T00:48:04.928Z,4.38
2023-07-11T00:51:11.153Z,5.50
2023-07-11T00:54:14.936Z,4.70
2023-07-11T00:57:16.913Z,4.55
2023-07-11T01:00:22.204Z,4.47
2023-07-11T01:03:25.316Z,4.40
2023-07-11T01:06:29.990Z,4.30
2023-07-11T01:09:31.817Z,4.50
2023-07-11T01:12:33.762Z,4.15
2023-07-11T01:15:35.787Z,3.77
2023-07-11T01:18:41.799Z,4.45
2023-07-11T01:21:47.301Z,4.60
2023-07-11T01:24:50.833Z,4.63
2023-07-11T01:27:53.086Z,4.95
2023-07-11T01:30:58.466Z,4.20
2023-07-11T01:34:01.114Z,4.60
2023-07-11T01:37:03.166Z,4.63
2023-07-11T01:40:06.967Z,5.00
2023-07-11T01:43:08.811Z,5.05
2023-07-11T01:46:13.445Z,4.37
2023-07-11T01:49:19.813Z,4.70
2023-07-11T01:52:22.836Z,5.40
2023-07-11T01:55:24.784Z,5.20
2023-07-11T01:58:26.707Z,5.68
2023-07-11T02:01:28.692Z,6.03
2023-07-11T02:04:30.664Z,6.03
2023-07-11T02:07:32.579Z,5.85
2023-07-11T02:10:34.459Z,5.50
2023-07-11T02:13:36.459Z,5.55
2023-07-11T02:16:41.536Z,5.20
2023-07-11T02:19:43.688Z,5.38
2023-07-11T02:22:49.824Z,5.88
2023-07-11T02:25:57.536Z,5.18
2023-07-11T02:28:59.434Z,5.38
2023-07-11T02:32:04.583Z,5.33
2023-07-11T02:35:10.020Z,6.20
2023-07-11T02:38:11.884Z,5.60
2023-07-11T02:41:16.740Z,5.40
2023-07-11T02:44:18.592Z,5.80
2023-07-11T02:47:20.485Z,5.83
2023-07-11T02:50:26.858Z,5.60
2023-07-11T02:53:31.445Z,6.15
2023-07-11T02:56:34.901Z,5.15
2023-07-11T02:59:36.761Z,5.43
2023-07-11T03:02:38.745Z,5.37
2023-07-11T03:05:50.815Z,5.32
2023-07-11T03:08:52.648Z,5.28
2023-07-11T03:11:54.602Z,5.45
2023-07-11T03:14:56.599Z,5.75
2023-07-11T03:18:03.108Z,5.00
2023-07-11T03:21:08.449Z,4.80
2023-07-11T03:24:11.507Z,4.88
2023-07-11T03:27:13.342Z,4.85
2023-07-11T03:30:18.667Z,5.20
2023-07-11T03:33:20.587Z,4.80
2023-07-11T03:36:25.183Z,4.95
2023-07-11T03:39:27.045Z,4.75
2023-07-11T03:42:28.961Z,4.53
2023-07-11T03:45:34.515Z,5.38
2023-07-11T03:48:40.941Z,5.17
2023-07-11T03:51:45.014Z,4.57
2023-07-11T03:54:52.013Z,5.13
2023-07-11T03:57:53.873Z,5.18
2023-07-11T04:00:56.165Z,4.93
2023-07-11T04:04:01.484Z,5.27
2023-07-11T04:07:04.286Z,5.10
2023-07-11T04:10:08.954Z,5.82
2023-07-11T04:13:10.875Z,5.03
2023-07-11T04:16:16.270Z,5.30
2023-07-11T04:19:18.289Z,5.13
2023-07-11T04:22:24.511Z,5.32
2023-07-11T04:25:26.373Z,5.55
2023-07-11T04:28:28.217Z,5.35
2023-07-11T04:31:33.892Z,6.18
2023-07-11T04:34:39.358Z,6.33
2023-07-11T04:37:41.196Z,6.43
2023-07-11T04:40:47.904Z,5.90
2023-07-11T04:43:49.745Z,5.85
2023-07-11T04:46:51.639Z,6.55
2023-07-11T04:49:53.628Z,6.67
2023-07-11T04:52:55.633Z,6.18
2023-07-11T04:55:58.978Z,6.47
2023-07-11T04:59:01.357Z,7.00
2023-07-11T05:02:06.587Z,7.10
2023-07-11T05:05:08.826Z,5.70
2023-07-11T05:08:10.701Z,7.32
2023-07-11T05:11:17.933Z,7.00
2023-07-11T05:14:19.826Z,6.47
2023-07-11T05:17:26.098Z,6.85
2023-07-11T05:20:28.059Z,7.17
2023-07-11T05:23:30.483Z,6.97
2023-07-11T05:26:32.657Z,6.95
2023-07-11T05:29:36.938Z,5.88
2023-07-11T05:32:38.777Z,7.05
2023-07-11T05:36:19.527Z,6.73
2023-07-11T05:39:21.367Z,6.72
2023-07-11T05:42:23.398Z,7.13
2023-07-11T05:45:25.415Z,6.43
2023-07-11T05:48:31.109Z,7.22
2023-07-11T05:51:32.972Z,6.27
2023-07-11T05:54:34.853Z,7.10
2023-07-11T05:57:36.717Z,6.63
2023-07-11T06:00:38.504Z,7.07
2023-07-11T06:03:50.373Z,6.30
2023-07-11T06:06:56.053Z,6.83
2023-07-11T06:09:57.960Z,7.25
2023-07-11T06:12:59.839Z,6.97
2023-07-11T06:16:12.379Z,6.75
2023-07-11T06:19:14.280Z,6.78
2023-07-11T06:22:20.074Z,7.80
2023-07-11T06:25:22.382Z,6.90
2023-07-11T06:28:24.962Z,8.07
2023-07-11T06:31:26.963Z,7.45
2023-07-11T06:34:33.115Z,7.40
2023-07-11T06:37:35.459Z,7.20
2023-07-11T06:40:40.641Z,7.28
2023-07-11T06:43:42.532Z,7.55
2023-07-11T06:46:44.405Z,7.40
2023-07-11T06:49:49.875Z,7.20
2023-07-11T06:52:51.736Z,7.10
2023-07-11T06:55:53.659Z,7.93
2023-07-11T06:58:55.553Z,7.53
2023-07-11T07:01:57.519Z,7.35
2023-07-11T07:04:59.580Z,7.30
2023-07-11T07:08:13.989Z,7.33
2023-07-11T07:11:17.007Z,7.60
2023-07-11T07:14:19.521Z,7.13
2023-07-11T07:17:21.617Z,6.88
2023-07-11T07:20:27.917Z,6.68
2023-07-11T07:23:30.040Z,7.40
2023-07-11T07:26:31.953Z,6.93
2023-07-11T07:29:33.856Z,7.25
2023-07-11T07:32:36.540Z,7.45
2023-07-11T07:35:42.847Z,7.20
2023-07-11T07:38:44.869Z,6.93
2023-07-11T07:41:46.664Z,7.95
2023-07-11T07:44:48.844Z,7.30
2023-07-11T07:47:50.937Z,6.40
2023-07-11T07:50:53.629Z,7.28
2023-07-11T07:53:58.983Z,7.00
2023-07-11T07:57:00.850Z,6.57
2023-07-11T08:00:03.878Z,6.88
2023-07-11T08:03:06.144Z,6.40
2023-07-11T08:09:16.689Z,5.93
2023-07-11T08:12:18.632Z,6.43
2023-07-11T08:15:20.479Z,6.35
2023-07-11T08:18:22.396Z,6.85
2023-07-11T08:21:27.851Z,6.55
2023-07-11T08:24:34.180Z,6.70
2023-07-11T08:27:36.097Z,6.13
2023-07-11T08:30:38.777Z,5.35
2023-07-11T08:33:40.799Z,5.63
2023-07-11T08:36:42.838Z,5.50
2023-07-11T08:39:44.706Z,5.50
2023-07-11T08:42:46.591Z,6.00
2023-07-11T08:46:00.160Z,6.22
2023-07-11T08:49:17.907Z,5.95
2023-07-11T08:52:20.242Z,5.85
2023-07-11T08:55:32.289Z,5.60
2023-07-11T08:58:36.218Z,5.45
2023-07-11T09:01:38.085Z,6.25
2023-07-11T09:04:47.412Z,6.22
2023-07-11T09:07:49.679Z,6.13
2023-07-11T09:11:10.980Z,6.03
2023-07-11T09:14:28.507Z,5.80
2023-07-11T09:17:36.945Z,6.10
2023-07-11T09:21:18.330Z,5.15
2023-07-11T09:24:41.247Z,5.68
2023-07-11T09:27:46.596Z,5.80
2023-07-11T09:30:58.949Z,5.30
2023-07-11T09:34:02.888Z,5.50
2023-07-11T09:37:21.985Z,6.30
2023-07-11T09:40:38.490Z,5.43
2023-07-11T09:43:40.398Z,5.70
2023-07-11T09:46:42.510Z,5.18
2023-07-11T09:49:44.700Z,5.60
2023-07-11T09:52:46.639Z,6.30
2023-07-11T09:56:06.656Z,5.95
2023-07-11T09:59:14.003Z,5.30
2023-07-11T10:02:17.144Z,5.35
2023-07-11T10:05:22.198Z,5.47
2023-07-11T10:08:28.186Z,5.75
2023-07-11T10:11:30.055Z,5.05
2023-07-11T10:14:33.537Z,5.50
2023-07-11T10:17:37.218Z,5.10
2023-07-11T10:20:39.138Z,5.70
2023-07-11T10:23:43.634Z,5.20
2023-07-11T10:26:47.055Z,5.43
2023-07-11T10:29:50.869Z,5.57
2023-07-11T10:33:01.853Z,5.05
2023-07-11T10:36:16.771Z,5.70
2023-07-11T10:39:42.131Z,5.50
2023-07-11T10:43:08.073Z,5.15
2023-07-11T10:46:38.147Z,5.63
2023-07-11T10:49:47.027Z,5.60
2023-07-11T10:52:48.953Z,5.93
2023-07-11T10:56:19.096Z,5.85
2023-07-11T10:59:23.938Z,5.63
2023-07-11T11:02:51.014Z,5.27
2023-07-11T11:06:21.947Z,5.40
2023-07-11T11:09:57.023Z,6.20
2023-07-11T11:13:05.399Z,5.95
2023-07-11T11:16:32.910Z,6.07
2023-07-11T11:20:00.093Z,6.10
2023-07-11T11:23:37.712Z,5.25
2023-07-11T11:26:42.992Z,5.45
2023-07-11T11:29:50.948Z,5.28
2023-07-11T11:32:59.249Z,5.43
2023-07-11T11:36:23.338Z,5.60
2023-07-11T11:39:49.340Z,5.07
2023-07-11T11:43:01.881Z,5.40
2023-07-11T11:49:39.335Z,5.10
2023-07-11T11:52:44.811Z,5.17
2023-07-11T11:55:50.077Z,4.70
2023-07-11T11:58:59.484Z,4.82
2023-07-11T12:02:31.025Z,5.35
2023-07-11T12:05:33.973Z,5.70
2023-07-11T12:08:39.280Z,5.40
2023-07-11T12:12:08.128Z,5.18
2023-07-11T12:15:12.765Z,5.55
2023-07-11T12:18:29.686Z,5.30
2023-07-11T12:21:42.321Z,5.93
2023-07-11T12:24:47.783Z,5.33
2023-07-11T12:27:52.704Z,5.60
2023-07-11T12:31:27.195Z,5.00
2023-07-11T12:34:29.056Z,5.30
2023-07-11T12:37:40.024Z,5.35
2023-07-11T12:40:59.199Z,5.13
2023-07-11T12:44:02.458Z,5.30
2023-07-11T12:47:06.333Z,5.03
2023-07-11T12:50:26.294Z,5.63
2023-07-11T12:53:28.323Z,5.68
2023-07-11T12:56:30.693Z,5.77
2023-07-11T12:59:32.767Z,5.57
2023-07-11T13:02:34.621Z,5.80
2023-07-11T13:05:36.885Z,5.20
2023-07-11T13:08:38.824Z,5.03
2023-07-11T13:11:40.659Z,5.27
2023-07-11T13:14:44.597Z,5.43
2023-07-11T13:17:49.141Z,5.68
2023-07-11T13:20:51.008Z,5.50
2023-07-11T13:23:52.848Z,5.95
2023-07-11T13:27:05.837Z,4.97
2023-07-11T13:30:19.023Z,4.93
2023-07-11T13:39:44.459Z,5.35
2023-07-11T13:42:46.382Z,5.00
2023-07-11T13:45:48.312Z,5.65
2023-07-11T13:48:50.166Z,5.20
2023-07-11T13:52:01.754Z,5.40
2023-07-11T13:55:13.158Z,5.25
2023-07-11T13:58:15.577Z,4.93
2023-07-11T14:01:20.340Z,5.53
2023-07-11T14:04:32.220Z,5.53
2023-07-11T14:07:34.181Z,5.30
2023-07-11T14:10:36.060Z,5.47
2023-07-11T14:13:38.134Z,5.10
2023-07-11T14:16:40.009Z,5.72
2023-07-11T14:19:41.997Z,5.10
2023-07-11T14:22:44.031Z,5.22
2023-07-11T14:25:45.899Z,5.50
2023-07-11T14:28:47.775Z,5.30
2023-07-11T14:31:50.404Z,5.40
2023-07-11T14:34:52.367Z,4.68
2023-07-11T14:37:54.299Z,5.00
2023-07-11T14:40:56.316Z,5.15
2023-07-11T14:43:58.220Z,4.77
2023-07-11T14:47:00.222Z,5.32
2023-07-11T14:50:05.339Z,5.32
2023-07-11T14:53:07.272Z,4.57
2023-07-11T14:59:32.447Z,5.00
2023-07-11T15:02:35.057Z,4.90
2023-07-11T15:11:54.610Z,5.22
2023-07-11T15:18:03.575Z,5.80
2023-07-11T15:21:05.967Z,5.20
2023-07-11T15:24:15.635Z,4.75
2023-07-11T15:27:22.203Z,4.75
2023-07-11T15:30:24.098Z,5.30
2023-07-11T15:33:33.609Z,4.93
2023-07-11T15:36:35.528Z,5.50
2023-07-11T15:39:37.341Z,5.28
2023-07-11T15:42:43.470Z,5.38
2023-07-11T15:45:45.514Z,5.43
2023-07-11T15:48:48.090Z,4.68
2023-07-11T15:51:50.072Z,5.00
2023-07-11T15:54:51.919Z,4.72
2023-07-11T15:57:59.349Z,5.18
2023-07-11T16:01:01.184Z,5.30
2023-07-11T16:04:03.057Z,5.15
2023-07-11T16:07:07.859Z,4.97
2023-07-11T16:10:16.989Z,5.22
2023-07-11T16:13:20.727Z,5.47
2023-07-11T16:16:24.169Z,5.33
2023-07-11T16:19:29.269Z,5.47
2023-07-11T16:22:31.290Z,5.13
2023-07-11T16:25:33.680Z,4.97
2023-07-11T16:28:38.142Z,5.80
2023-07-11T16:31:40.214Z,5.10
2023-07-11T16:34:42.556Z,5.03
2023-07-11T16:37:45.125Z,5.20
2023-07-11T16:40:48.113Z,5.45
2023-07-11T16:43:53.295Z,5.20
2023-07-11T16:46:58.279Z,4.93
2023-07-11T16:50:00.159Z,5.15
2023-07-11T16:53:03.317Z,5.28
2023-07-11T16:56:05.775Z,5.28
2023-07-11T16:59:16.258Z,5.45
2023-07-11T17:02:23.433Z,5.47
2023-07-11T17:05:28.014Z,4.70
2023-07-11T17:08:30.757Z,5.35
2023-07-11T17:11:32.552Z,4.97
2023-07-11T17:14:38.603Z,4.97
2023-07-11T17:17:40.588Z,4.97
2023-07-11T17:20:42.606Z,5.30
2023-07-11T17:23:44.586Z,5.13
2023-07-11T17:26:47.271Z,5.40
2023-07-11T17:29:54.183Z,6.10
2023-07-11T17:32:56.461Z,5.30
2023-07-11T17:36:01.398Z,5.43
2023-07-11T17:39:15.938Z,5.72
2023-07-11T17:42:17.929Z,4.90
2023-07-11T17:45:41.750Z,5.20
2023-07-11T17:48:42.509Z,5.33
2023-07-11T17:51:44.637Z,5.28
2023-07-11T17:54:47.305Z,5.38
2023-07-11T17:57:49.127Z,5.63
2023-07-11T18:00:51.607Z,5.43
2023-07-11T18:03:53.815Z,5.43
2023-07-11T18:06:55.930Z,5.43
2023-07-11T18:09:57.778Z,5.78
2023-07-11T18:13:10.228Z,4.95
2023-07-11T18:16:34.248Z,5.32
2023-07-11T18:19:38.511Z,5.23
2023-07-11T18:22:41.933Z,5.25
2023-07-11T18:25:43.754Z,5.55
2023-07-11T18:28:46.331Z,5.60
2023-07-11T18:31:48.193Z,5.53
2023-07-11T18:34:55.393Z,5.17
2023-07-11T18:37:57.593Z,5.35
2023-07-11T18:40:59.522Z,5.40
2023-07-11T18:44:01.356Z,5.32
2023-07-11T18:47:03.262Z,5.80
2023-07-11T18:50:11.854Z,6.30
2023-07-11T18:53:13.749Z,6.63
2023-07-11T18:56:20.702Z,6.80
2023-07-11T18:59:22.619Z,5.78
2023-07-11T19:02:26.090Z,6.00
2023-07-11T19:05:28.246Z,5.83
2023-07-11T19:08:30.126Z,6.10
2023-07-11T19:11:31.923Z,6.15
2023-07-11T19:14:33.771Z,5.93
2023-07-11T19:17:35.761Z,6.25
2023-07-11T19:20:39.088Z,6.53
2023-07-11T19:23:40.955Z,6.10
2023-07-11T19:26:44.395Z,6.15
2023-07-11T19:29:46.227Z,6.30
2023-07-11T19:32:51.738Z,6.22
2023-07-11T19:35:57.733Z,6.00
2023-07-11T19:38:59.562Z,5.63
2023-07-11T19:42:01.462Z,6.07
2023-07-11T19:45:03.419Z,6.03
2023-07-11T19:48:06.890Z,6.38
2023-07-11T19:51:11.166Z,6.07
2023-07-11T19:54:13.505Z,6.07
2023-07-11T19:57:20.111Z,6.10
2023-07-11T20:00:22.180Z,5.93
2023-07-11T20:03:24.248Z,5.72
2023-07-11T20:06:26.148Z,6.27
2023-07-11T20:09:28.096Z,6.25
2023-07-11T20:12:31.885Z,6.10
2023-07-11T20:15:34.630Z,6.10
2023-07-11T20:18:36.521Z,6.60
2023-07-11T20:21:38.466Z,6.53
2023-07-11T20:24:46.711Z,6.68
2023-07-11T20:27:54.778Z,6.20
2023-07-11T20:30:57.485Z,6.18
2023-07-11T20:33:59.531Z,6.32
2023-07-11T20:37:01.417Z,6.17
2023-07-11T20:40:03.356Z,6.40
2023-07-11T20:43:05.467Z,6.15
2023-07-11T20:46:19.186Z,6.43
2023-07-11T20:49:21.264Z,6.28
2023-07-11T20:52:23.081Z,6.33
2023-07-11T20:55:25.238Z,6.38
2023-07-11T20:58:29.290Z,6.20
2023-07-11T21:01:31.250Z,6.40
2023-07-11T21:04:33.315Z,6.10
2023-07-11T21:07:35.127Z,6.13
2023-07-11T21:10:41.351Z,6.97
2023-07-11T21:13:43.991Z,6.78
2023-07-11T21:16:45.944Z,6.07
2023-07-11T21:19:48.048Z,5.90
2023-07-11T21:22:50.089Z,6.73
2023-07-11T21:25:52.063Z,6.80
2023-07-11T21:28:54.274Z,6.57
2023-07-11T21:31:56.766Z,6.63
2023-07-11T21:34:59.260Z,6.65
2023-07-11T21:38:01.166Z,6.67
2023-07-11T21:41:03.938Z,6.65
2023-07-11T21:44:05.921Z,6.20
2023-07-11T21:47:09.738Z,6.10
2023-07-11T21:50:34.838Z,7.00
2023-07-11T21:53:38.643Z,5.77
2023-07-11T21:56:40.618Z,6.00
2023-07-11T21:59:42.490Z,6.65
2023-07-11T22:02:44.421Z,5.80
2023-07-11T22:05:47.126Z,6.57
2023-07-11T22:08:49.076Z,6.40
2023-07-11T22:11:50.918Z,6.35
2023-07-11T22:14:52.742Z,6.10
2023-07-11T22:17:55.404Z,6.40
2023-07-11T22:20:57.772Z,6.57
2023-07-11T22:23:59.912Z,6.53
2023-07-11T22:27:01.726Z,6.68
2023-07-11T22:30:04.551Z,6.45
2023-07-11T22:33:06.849Z,6.15
2023-07-11T22:36:11.372Z,6.95
2023-07-11T22:39:13.202Z,6.30
2023-07-11T22:42:15.121Z,6.15
2023-07-11T22:45:17.722Z,6.63
2023-07-11T22:48:21.830Z,6.70
2023-07-11T22:51:23.744Z,6.55
2023-07-11T22:54:25.616Z,6.67
2023-07-11T22:57:27.432Z,6.60
2023-07-11T23:00:34.628Z,6.40
2023-07-11T23:03:36.460Z,6.68
2023-07-11T23:06:39.031Z,6.20
2023-07-11T23:09:40.873Z,6.27
2023-07-11T23:12:42.723Z,6.50
2023-07-11T23:15:53.662Z,6.38
2023-07-11T23:19:05.905Z,7.28
2023-07-11T23:22:08.092Z,7.13
2023-07-11T23:25:11.710Z,6.43
2023-07-11T23:28:30.729Z,6.53
2023-07-11T23:31:33.558Z,6.95
2023-07-11T23:34:35.645Z,6.97
2023-07-11T23:37:37.509Z,7.18
2023-07-11T23:40:44.031Z,7.00
2023-07-11T23:43:46.913Z,7.25
2023-07-11T23:46:48.765Z,7.10
2023-07-11T23:49:50.617Z,6.65
2023-07-11T23:52:52.787Z,6.70
2023-07-11T23:55:56.112Z,7.07
2023-07-11T23:58:58.140Z,7.00
